sensor_id;sensor_type;location;lat;lon;timestamp;temperature;humidity
40816;DHT22;26535;48.788;9.214;2022-07-06T05:01:37;16.80;88.00
40816;DHT22;26535;48.788;9.214;2022-07-06T05:04:04;16.80;88.00
40816;DHT22;26535;48.788;9.214;2022-07-06T05:06:30;16.90;88.00
40816;DHT22;26535;48.788;9.214;2022-07-06T05:08:55;16.90;88.10
40816;DHT22;26535;48.788;9.214;2022-07-06T05:11:22;16.90;88.10
40816;DHT22;26535;48.788;9.214;2022-07-06T05:13:49;16.90;88.20
40816;DHT22;26535;48.788;9.214;2022-07-06T05:16:19;16.90;88.40
40816;DHT22;26535;48.788;9.214;2022-07-06T05:18:44;17.00;87.90
40816;DHT22;26535;48.788;9.214;2022-07-06T05:21:14;17.10;87.70
40816;DHT22;26535;48.788;9.214;2022-07-06T05:23:40;17.10;87.60
40816;DHT22;26535;48.788;9.214;2022-07-06T05:26:15;17.10;87.60
40816;DHT22;26535;48.788;9.214;2022-07-06T05:28:42;17.20;87.20
40816;DHT22;26535;48.788;9.214;2022-07-06T05:31:14;17.30;86.90
40816;DHT22;26535;48.788;9.214;2022-07-06T05:33:40;17.30;86.80
40816;DHT22;26535;48.788;9.214;2022-07-06T05:36:07;17.40;86.30
40816;DHT22;26535;48.788;9.214;2022-07-06T05:38:36;17.50;86.00
40816;DHT22;26535;48.788;9.214;2022-07-06T05:41:02;17.50;85.80
40816;DHT22;26535;48.788;9.214;2022-07-06T05:43:28;17.60;86.00
40816;DHT22;26535;48.788;9.214;2022-07-06T05:45:56;17.60;86.10
40816;DHT22;26535;48.788;9.214;2022-07-06T05:48:25;17.70;85.20
40816;DHT22;26535;48.788;9.214;2022-07-06T05:51:16;17.70;85.30
40816;DHT22;26535;48.788;9.214;2022-07-06T05:53:43;17.80;85.30
40816;DHT22;26535;48.788;9.214;2022-07-06T05:56:12;17.80;85.60
40816;DHT22;26535;48.788;9.214;2022-07-06T05:58:39;17.90;85.20
40816;DHT22;26535;48.788;9.214;2022-07-06T06:01:05;17.90;85.20
40816;DHT22;26535;48.788;9.214;2022-07-06T06:03:38;18.00;85.30
40816;DHT22;26535;48.788;9.214;2022-07-06T06:06:05;18.10;84.10
40816;DHT22;26535;48.788;9.214;2022-07-06T06:08:37;18.20;84.30
40816;DHT22;26535;48.788;9.214;2022-07-06T06:11:04;18.30;83.70
40816;DHT22;26535;48.788;9.214;2022-07-06T06:13:32;18.30;83.00
40816;DHT22;26535;48.788;9.214;2022-07-06T06:15:58;18.40;82.80
40816;DHT22;26535;48.788;9.214;2022-07-06T06:18:24;18.50;82.40
40816;DHT22;26535;48.788;9.214;2022-07-06T06:20:50;18.60;82.60
40816;DHT22;26535;48.788;9.214;2022-07-06T06:23:15;18.60;81.80
40816;DHT22;26535;48.788;9.214;2022-07-06T06:25:41;18.50;81.90
40816;DHT22;26535;48.788;9.214;2022-07-06T06:28:08;18.50;81.70
40816;DHT22;26535;48.788;9.214;2022-07-06T06:30:38;18.60;81.90
40816;DHT22;26535;48.788;9.214;2022-07-06T06:33:17;18.70;81.60
40816;DHT22;26535;48.788;9.214;2022-07-06T06:35:48;18.80;81.10
40816;DHT22;26535;48.788;9.214;2022-07-06T06:38:15;18.90;81.00
40816;DHT22;26535;48.788;9.214;2022-07-06T06:40:41;18.80;80.90
40816;DHT22;26535;48.788;9.214;2022-07-06T06:43:07;19.00;80.80
40816;DHT22;26535;48.788;9.214;2022-07-06T06:45:43;19.10;80.40
40816;DHT22;26535;48.788;9.214;2022-07-06T06:48:10;19.10;80.40
40816;DHT22;26535;48.788;9.214;2022-07-06T06:50:36;19.30;79.90
40816;DHT22;26535;48.788;9.214;2022-07-06T06:53:02;19.50;80.10
40816;DHT22;26535;48.788;9.214;2022-07-06T06:55:31;19.60;78.20
40816;DHT22;26535;48.788;9.214;2022-07-06T06:58:00;19.60;76.90
40816;DHT22;26535;48.788;9.214;2022-07-06T07:00:32;19.70;76.80
40816;DHT22;26535;48.788;9.214;2022-07-06T07:03:05;19.90;77.50
40816;DHT22;26535;48.788;9.214;2022-07-06T07:05:31;20.00;77.60
40816;DHT22;26535;48.788;9.214;2022-07-06T07:08:19;19.80;77.90
40816;DHT22;26535;48.788;9.214;2022-07-06T07:11:00;19.90;77.30
40816;DHT22;26535;48.788;9.214;2022-07-06T07:13:34;20.00;77.50
40816;DHT22;26535;48.788;9.214;2022-07-06T07:16:19;20.00;77.80
40816;DHT22;26535;48.788;9.214;2022-07-06T07:18:47;20.10;77.00
40816;DHT22;26535;48.788;9.214;2022-07-06T07:21:16;20.10;76.30
40816;DHT22;26535;48.788;9.214;2022-07-06T07:23:50;20.20;75.80
40816;DHT22;26535;48.788;9.214;2022-07-06T07:26:47;20.20;76.00
40816;DHT22;26535;48.788;9.214;2022-07-06T07:29:27;20.20;76.20
40816;DHT22;26535;48.788;9.214;2022-07-06T07:31:53;20.30;76.30
40816;DHT22;26535;48.788;9.214;2022-07-06T07:34:49;20.40;75.80
40816;DHT22;26535;48.788;9.214;2022-07-06T07:37:21;20.50;75.70
40816;DHT22;26535;48.788;9.214;2022-07-06T07:39:49;20.50;75.60
40816;DHT22;26535;48.788;9.214;2022-07-06T07:42:18;20.70;74.80
40816;DHT22;26535;48.788;9.214;2022-07-06T07:44:44;20.70;73.00
40816;DHT22;26535;48.788;9.214;2022-07-06T07:47:13;20.60;73.00
40816;DHT22;26535;48.788;9.214;2022-07-06T07:53:17;20.70;74.00
40816;DHT22;26535;48.788;9.214;2022-07-06T07:55:58;20.80;74.70
40816;DHT22;26535;48.788;9.214;2022-07-06T07:58:27;20.80;74.80
40816;DHT22;26535;48.788;9.214;2022-07-06T08:00:59;21.00;73.90
40816;DHT22;26535;48.788;9.214;2022-07-06T08:03:29;21.00;74.40
40816;DHT22;26535;48.788;9.214;2022-07-06T08:05:55;21.10;73.30
40816;DHT22;26535;48.788;9.214;2022-07-06T08:08:33;21.10;74.20
40816;DHT22;26535;48.788;9.214;2022-07-06T08:11:06;21.00;74.70
40816;DHT22;26535;48.788;9.214;2022-07-06T08:13:54;21.00;74.80
40816;DHT22;26535;48.788;9.214;2022-07-06T08:16:29;21.20;74.30
40816;DHT22;26535;48.788;9.214;2022-07-06T08:19:02;21.30;73.50
40816;DHT22;26535;48.788;9.214;2022-07-06T08:21:27;21.40;73.30
40816;DHT22;26535;48.788;9.214;2022-07-06T08:24:10;21.40;73.30
40816;DHT22;26535;48.788;9.214;2022-07-06T08:30:24;21.30;73.00
40816;DHT22;26535;48.788;9.214;2022-07-06T08:33:52;21.30;73.40
40816;DHT22;26535;48.788;9.214;2022-07-06T08:36:46;21.80;73.50
40816;DHT22;26535;48.788;9.214;2022-07-06T08:39:21;22.00;71.90
40816;DHT22;26535;48.788;9.214;2022-07-06T08:41:51;22.00;72.20
40816;DHT22;26535;48.788;9.214;2022-07-06T08:44:20;22.00;71.90
40816;DHT22;26535;48.788;9.214;2022-07-06T08:46:54;22.10;71.30
40816;DHT22;26535;48.788;9.214;2022-07-06T08:49:55;22.10;71.20
40816;DHT22;26535;48.788;9.214;2022-07-06T08:52:31;22.10;70.70
40816;DHT22;26535;48.788;9.214;2022-07-06T08:55:15;22.20;71.50
40816;DHT22;26535;48.788;9.214;2022-07-06T08:57:51;22.00;71.70
40816;DHT22;26535;48.788;9.214;2022-07-06T09:00:20;22.10;72.50
40816;DHT22;26535;48.788;9.214;2022-07-06T09:02:55;22.30;73.20
40816;DHT22;26535;48.788;9.214;2022-07-06T09:05:25;22.40;71.30
40816;DHT22;26535;48.788;9.214;2022-07-06T09:07:53;22.50;70.70
40816;DHT22;26535;48.788;9.214;2022-07-06T09:10:22;22.60;70.30
40816;DHT22;26535;48.788;9.214;2022-07-06T09:12:48;22.60;70.50
40816;DHT22;26535;48.788;9.214;2022-07-06T09:15:23;22.60;70.80
40816;DHT22;26535;48.788;9.214;2022-07-06T09:18:04;22.50;70.30
40816;DHT22;26535;48.788;9.214;2022-07-06T09:20:36;22.70;70.70
40816;DHT22;26535;48.788;9.214;2022-07-06T09:25:53;22.70;70.10
40816;DHT22;26535;48.788;9.214;2022-07-06T09:28:39;22.80;69.70
40816;DHT22;26535;48.788;9.214;2022-07-06T09:31:25;22.80;68.90
40816;DHT22;26535;48.788;9.214;2022-07-06T09:34:04;22.60;69.50
40816;DHT22;26535;48.788;9.214;2022-07-06T09:36:53;23.00;69.90
40816;DHT22;26535;48.788;9.214;2022-07-06T09:39:24;23.30;68.10
40816;DHT22;26535;48.788;9.214;2022-07-06T09:41:56;23.30;68.10
40816;DHT22;26535;48.788;9.214;2022-07-06T09:44:35;23.60;67.70
40816;DHT22;26535;48.788;9.214;2022-07-06T09:47:12;23.80;66.70
40816;DHT22;26535;48.788;9.214;2022-07-06T09:49:39;24.00;66.40
40816;DHT22;26535;48.788;9.214;2022-07-06T09:52:26;24.10;65.80
40816;DHT22;26535;48.788;9.214;2022-07-06T09:54:52;24.00;66.00
40816;DHT22;26535;48.788;9.214;2022-07-06T09:57:17;23.80;66.90
40816;DHT22;26535;48.788;9.214;2022-07-06T09:59:50;23.80;66.70
40816;DHT22;26535;48.788;9.214;2022-07-06T10:02:16;23.80;67.30
40816;DHT22;26535;48.788;9.214;2022-07-06T10:04:47;23.80;66.50
40816;DHT22;26535;48.788;9.214;2022-07-06T10:07:28;24.00;66.30
40816;DHT22;26535;48.788;9.214;2022-07-06T10:10:03;24.10;65.80
40816;DHT22;26535;48.788;9.214;2022-07-06T10:12:37;24.20;65.40
40816;DHT22;26535;48.788;9.214;2022-07-06T10:15:04;24.30;65.70
40816;DHT22;26535;48.788;9.214;2022-07-06T10:17:30;24.10;66.10
40816;DHT22;26535;48.788;9.214;2022-07-06T10:19:59;24.10;66.40
40816;DHT22;26535;48.788;9.214;2022-07-06T10:22:28;24.20;65.50
40816;DHT22;26535;48.788;9.214;2022-07-06T10:24:55;24.30;65.80
40816;DHT22;26535;48.788;9.214;2022-07-06T10:27:23;24.30;65.20
40816;DHT22;26535;48.788;9.214;2022-07-06T10:29:52;24.30;63.00
40816;DHT22;26535;48.788;9.214;2022-07-06T10:32:21;24.40;64.30
40816;DHT22;26535;48.788;9.214;2022-07-06T10:34:49;24.60;65.60
40816;DHT22;26535;48.788;9.214;2022-07-06T10:37:25;24.40;64.50
40816;DHT22;26535;48.788;9.214;2022-07-06T10:39:52;24.30;65.10
40816;DHT22;26535;48.788;9.214;2022-07-06T10:42:50;24.20;64.80
40816;DHT22;26535;48.788;9.214;2022-07-06T10:50:50;24.70;63.40
40816;DHT22;26535;48.788;9.214;2022-07-06T10:53:34;24.50;63.10
40816;DHT22;26535;48.788;9.214;2022-07-06T10:56:11;24.60;63.50
40816;DHT22;26535;48.788;9.214;2022-07-06T10:58:49;24.60;63.40
40816;DHT22;26535;48.788;9.214;2022-07-06T11:01:20;24.60;64.10
40816;DHT22;26535;48.788;9.214;2022-07-06T11:03:47;24.50;63.70
40816;DHT22;26535;48.788;9.214;2022-07-06T11:06:22;24.50;65.00
40816;DHT22;26535;48.788;9.214;2022-07-06T11:14:17;25.50;62.80
40816;DHT22;26535;48.788;9.214;2022-07-06T11:19:15;25.90;62.00
40816;DHT22;26535;48.788;9.214;2022-07-06T11:21:45;26.30;60.20
40816;DHT22;26535;48.788;9.214;2022-07-06T11:24:31;26.60;60.50
40816;DHT22;26535;48.788;9.214;2022-07-06T11:26:58;26.30;60.20
40816;DHT22;26535;48.788;9.214;2022-07-06T11:29:25;25.80;60.90
40816;DHT22;26535;48.788;9.214;2022-07-06T11:31:57;25.70;61.70
40816;DHT22;26535;48.788;9.214;2022-07-06T11:34:26;25.80;60.70
40816;DHT22;26535;48.788;9.214;2022-07-06T11:37:00;26.20;61.40
40816;DHT22;26535;48.788;9.214;2022-07-06T11:39:29;27.10;59.80
40816;DHT22;26535;48.788;9.214;2022-07-06T11:41:56;27.30;59.20
40816;DHT22;26535;48.788;9.214;2022-07-06T11:44:22;27.40;59.60
40816;DHT22;26535;48.788;9.214;2022-07-06T11:46:48;27.80;58.50
40816;DHT22;26535;48.788;9.214;2022-07-06T11:49:15;28.00;58.40
40816;DHT22;26535;48.788;9.214;2022-07-06T11:51:42;28.50;57.30
40816;DHT22;26535;48.788;9.214;2022-07-06T11:54:18;28.50;57.70
40816;DHT22;26535;48.788;9.214;2022-07-06T11:56:50;28.50;57.90
40816;DHT22;26535;48.788;9.214;2022-07-06T11:59:25;29.60;56.70
40816;DHT22;26535;48.788;9.214;2022-07-06T12:02:07;30.90;54.70
40816;DHT22;26535;48.788;9.214;2022-07-06T12:04:38;30.00;54.60
40816;DHT22;26535;48.788;9.214;2022-07-06T12:07:15;30.30;55.40
40816;DHT22;26535;48.788;9.214;2022-07-06T12:09:46;30.90;54.20
40816;DHT22;26535;48.788;9.214;2022-07-06T12:12:14;30.90;54.00
40816;DHT22;26535;48.788;9.214;2022-07-06T12:14:44;31.60;53.40
40816;DHT22;26535;48.788;9.214;2022-07-06T12:17:14;32.80;52.80
40816;DHT22;26535;48.788;9.214;2022-07-06T12:19:41;33.10;52.00
40816;DHT22;26535;48.788;9.214;2022-07-06T12:22:08;32.30;52.10
40816;DHT22;26535;48.788;9.214;2022-07-06T12:24:35;31.60;52.80
40816;DHT22;26535;48.788;9.214;2022-07-06T12:27:11;30.40;54.00
40816;DHT22;26535;48.788;9.214;2022-07-06T12:29:37;29.90;55.20
40816;DHT22;26535;48.788;9.214;2022-07-06T12:32:04;29.90;54.80
40816;DHT22;26535;48.788;9.214;2022-07-06T12:34:31;30.00;55.10
40816;DHT22;26535;48.788;9.214;2022-07-06T12:36:59;29.90;55.30
40816;DHT22;26535;48.788;9.214;2022-07-06T12:39:30;29.90;54.50
40816;DHT22;26535;48.788;9.214;2022-07-06T12:42:02;29.30;55.90
40816;DHT22;26535;48.788;9.214;2022-07-06T12:44:29;29.00;56.30
40816;DHT22;26535;48.788;9.214;2022-07-06T12:47:08;28.50;56.60
40816;DHT22;26535;48.788;9.214;2022-07-06T12:49:36;28.10;56.80
40816;DHT22;26535;48.788;9.214;2022-07-06T12:52:12;27.70;57.50
40816;DHT22;26535;48.788;9.214;2022-07-06T12:54:50;27.60;57.50
40816;DHT22;26535;48.788;9.214;2022-07-06T12:57:18;28.00;57.20
40816;DHT22;26535;48.788;9.214;2022-07-06T12:59:55;27.80;57.30
40816;DHT22;26535;48.788;9.214;2022-07-06T13:02:22;28.10;57.20
40816;DHT22;26535;48.788;9.214;2022-07-06T13:07:21;32.40;52.80
40816;DHT22;26535;48.788;9.214;2022-07-06T13:09:47;34.50;49.60
40816;DHT22;26535;48.788;9.214;2022-07-06T13:12:13;35.00;48.80
40816;DHT22;26535;48.788;9.214;2022-07-06T13:14:39;35.90;47.60
40816;DHT22;26535;48.788;9.214;2022-07-06T13:17:08;35.60;47.40
40816;DHT22;26535;48.788;9.214;2022-07-06T13:19:36;35.30;48.00
40816;DHT22;26535;48.788;9.214;2022-07-06T13:22:02;35.70;47.80
40816;DHT22;26535;48.788;9.214;2022-07-06T13:24:28;34.40;48.10
40816;DHT22;26535;48.788;9.214;2022-07-06T13:26:55;33.80;48.80
40816;DHT22;26535;48.788;9.214;2022-07-06T13:29:21;33.10;49.70
40816;DHT22;26535;48.788;9.214;2022-07-06T13:31:47;32.80;50.00
40816;DHT22;26535;48.788;9.214;2022-07-06T13:34:13;32.80;49.70
40816;DHT22;26535;48.788;9.214;2022-07-06T13:36:39;32.10;50.20
40816;DHT22;26535;48.788;9.214;2022-07-06T13:39:06;31.40;51.70
40816;DHT22;26535;48.788;9.214;2022-07-06T13:41:32;33.20;49.90
40816;DHT22;26535;48.788;9.214;2022-07-06T13:43:58;34.30;48.70
40816;DHT22;26535;48.788;9.214;2022-07-06T13:46:27;35.60;47.30
40816;DHT22;26535;48.788;9.214;2022-07-06T13:48:53;37.10;46.40
40816;DHT22;26535;48.788;9.214;2022-07-06T13:51:19;38.10;45.50
40816;DHT22;26535;48.788;9.214;2022-07-06T13:53:45;37.10;45.30
40816;DHT22;26535;48.788;9.214;2022-07-06T13:56:11;35.50;46.30
40816;DHT22;26535;48.788;9.214;2022-07-06T13:58:37;33.70;48.10
40816;DHT22;26535;48.788;9.214;2022-07-06T14:01:03;33.30;49.00
40816;DHT22;26535;48.788;9.214;2022-07-06T14:03:30;35.10;47.90
40816;DHT22;26535;48.788;9.214;2022-07-06T14:06:00;37.10;46.40
40816;DHT22;26535;48.788;9.214;2022-07-06T14:08:27;38.00;45.10
40816;DHT22;26535;48.788;9.214;2022-07-06T14:10:53;38.70;44.00
40816;DHT22;26535;48.788;9.214;2022-07-06T14:13:20;38.30;44.00
40816;DHT22;26535;48.788;9.214;2022-07-06T14:15:46;36.50;45.30
40816;DHT22;26535;48.788;9.214;2022-07-06T14:18:12;35.30;46.00
40816;DHT22;26535;48.788;9.214;2022-07-06T14:20:38;35.40;46.60
40816;DHT22;26535;48.788;9.214;2022-07-06T14:23:04;35.90;45.90
40816;DHT22;26535;48.788;9.214;2022-07-06T14:25:29;35.90;45.60
40816;DHT22;26535;48.788;9.214;2022-07-06T14:27:55;36.70;45.00
40816;DHT22;26535;48.788;9.214;2022-07-06T14:30:21;38.00;44.40
40816;DHT22;26535;48.788;9.214;2022-07-06T14:32:47;38.20;43.70
40816;DHT22;26535;48.788;9.214;2022-07-06T14:35:13;39.00;43.60
40816;DHT22;26535;48.788;9.214;2022-07-06T14:37:38;40.00;42.70
40816;DHT22;26535;48.788;9.214;2022-07-06T14:40:05;40.10;42.10
40816;DHT22;26535;48.788;9.214;2022-07-06T14:42:30;39.90;42.50
40816;DHT22;26535;48.788;9.214;2022-07-06T14:44:56;39.80;42.30
40816;DHT22;26535;48.788;9.214;2022-07-06T14:47:22;38.90;42.80
40816;DHT22;26535;48.788;9.214;2022-07-06T14:49:48;38.20;43.40
40816;DHT22;26535;48.788;9.214;2022-07-06T14:52:14;38.10;43.80
40816;DHT22;26535;48.788;9.214;2022-07-06T14:54:40;38.70;43.50
40816;DHT22;26535;48.788;9.214;2022-07-06T14:57:06;39.20;42.60
40816;DHT22;26535;48.788;9.214;2022-07-06T14:59:34;39.80;42.50
40816;DHT22;26535;48.788;9.214;2022-07-06T15:02:00;40.30;42.20
40816;DHT22;26535;48.788;9.214;2022-07-06T15:04:26;40.10;41.50
40816;DHT22;26535;48.788;9.214;2022-07-06T15:06:53;39.40;42.20
40816;DHT22;26535;48.788;9.214;2022-07-06T15:09:19;40.30;42.30
40816;DHT22;26535;48.788;9.214;2022-07-06T15:11:44;40.90;41.30
40816;DHT22;26535;48.788;9.214;2022-07-06T15:14:11;40.50;41.00
40816;DHT22;26535;48.788;9.214;2022-07-06T15:16:38;39.30;42.00
40816;DHT22;26535;48.788;9.214;2022-07-06T15:19:10;38.40;42.40
40816;DHT22;26535;48.788;9.214;2022-07-06T15:22:08;37.30;43.10
40816;DHT22;26535;48.788;9.214;2022-07-06T15:24:33;35.10;44.90
40816;DHT22;26535;48.788;9.214;2022-07-06T15:26:59;35.30;45.20
40816;DHT22;26535;48.788;9.214;2022-07-06T15:29:26;36.30;44.60
40816;DHT22;26535;48.788;9.214;2022-07-06T15:31:53;37.00;44.00
40816;DHT22;26535;48.788;9.214;2022-07-06T15:34:19;36.00;44.40
40816;DHT22;26535;48.788;9.214;2022-07-06T15:36:45;34.80;45.00
40816;DHT22;26535;48.788;9.214;2022-07-06T15:39:11;33.30;46.40
40816;DHT22;26535;48.788;9.214;2022-07-06T15:41:37;32.70;47.20
40816;DHT22;26535;48.788;9.214;2022-07-06T15:44:03;32.50;47.00
40816;DHT22;26535;48.788;9.214;2022-07-06T15:46:38;33.00;47.00
40816;DHT22;26535;48.788;9.214;2022-07-06T15:49:08;32.70;46.80
40816;DHT22;26535;48.788;9.214;2022-07-06T15:51:33;32.60;47.40
40816;DHT22;26535;48.788;9.214;2022-07-06T15:54:00;33.80;46.60
40816;DHT22;26535;48.788;9.214;2022-07-06T15:56:26;34.00;46.00
40816;DHT22;26535;48.788;9.214;2022-07-06T15:58:52;33.40;46.30
40816;DHT22;26535;48.788;9.214;2022-07-06T16:01:18;33.80;46.10
40816;DHT22;26535;48.788;9.214;2022-07-06T16:03:45;34.60;45.80
40816;DHT22;26535;48.788;9.214;2022-07-06T16:06:11;35.00;44.70
40816;DHT22;26535;48.788;9.214;2022-07-06T16:08:38;34.60;44.90
40816;DHT22;26535;48.788;9.214;2022-07-06T16:11:04;33.60;45.80
40816;DHT22;26535;48.788;9.214;2022-07-06T16:13:30;32.90;47.00
40816;DHT22;26535;48.788;9.214;2022-07-06T16:15:58;32.90;47.00
40816;DHT22;26535;48.788;9.214;2022-07-06T16:18:24;32.50;47.00
40816;DHT22;26535;48.788;9.214;2022-07-06T16:20:50;31.70;47.30
40816;DHT22;26535;48.788;9.214;2022-07-06T16:23:17;30.80;49.20
40816;DHT22;26535;48.788;9.214;2022-07-06T16:25:43;30.00;49.10
40816;DHT22;26535;48.788;9.214;2022-07-06T16:28:09;29.30;49.80
40816;DHT22;26535;48.788;9.214;2022-07-06T16:30:36;28.90;50.00
40816;DHT22;26535;48.788;9.214;2022-07-06T16:33:01;28.50;50.70
40816;DHT22;26535;48.788;9.214;2022-07-06T16:35:27;28.10;51.20
40816;DHT22;26535;48.788;9.214;2022-07-06T16:37:55;28.10;51.60
40816;DHT22;26535;48.788;9.214;2022-07-06T16:40:21;28.20;51.30
40816;DHT22;26535;48.788;9.214;2022-07-06T16:42:47;30.00;49.80
40816;DHT22;26535;48.788;9.214;2022-07-06T16:45:13;32.40;47.00
40816;DHT22;26535;48.788;9.214;2022-07-06T16:47:41;33.80;45.60
40816;DHT22;26535;48.788;9.214;2022-07-06T16:50:08;34.50;44.20
40816;DHT22;26535;48.788;9.214;2022-07-06T16:52:34;34.30;44.20
40816;DHT22;26535;48.788;9.214;2022-07-06T16:54:59;34.00;44.30
40816;DHT22;26535;48.788;9.214;2022-07-06T16:57:25;33.10;44.90
40816;DHT22;26535;48.788;9.214;2022-07-06T16:59:51;31.80;46.30
40816;DHT22;26535;48.788;9.214;2022-07-06T17:02:17;31.10;46.30
40816;DHT22;26535;48.788;9.214;2022-07-06T17:04:43;31.10;46.90
40816;DHT22;26535;48.788;9.214;2022-07-06T17:07:10;30.60;47.40
40816;DHT22;26535;48.788;9.214;2022-07-06T17:09:39;30.30;47.20
40816;DHT22;26535;48.788;9.214;2022-07-06T17:12:05;29.50;47.30
40816;DHT22;26535;48.788;9.214;2022-07-06T17:14:34;28.80;48.60
40816;DHT22;26535;48.788;9.214;2022-07-06T17:17:00;28.20;49.00
40816;DHT22;26535;48.788;9.214;2022-07-06T17:19:26;27.90;49.10
40816;DHT22;26535;48.788;9.214;2022-07-06T17:21:52;28.00;49.40
40816;DHT22;26535;48.788;9.214;2022-07-06T17:24:18;28.40;48.90
40816;DHT22;26535;48.788;9.214;2022-07-06T17:26:43;28.90;48.40
40816;DHT22;26535;48.788;9.214;2022-07-06T17:29:09;28.90;48.20
40816;DHT22;26535;48.788;9.214;2022-07-06T17:31:35;28.70;48.20
40816;DHT22;26535;48.788;9.214;2022-07-06T17:34:02;28.00;48.70
40816;DHT22;26535;48.788;9.214;2022-07-06T17:36:28;27.60;49.60
40816;DHT22;26535;48.788;9.214;2022-07-06T17:38:54;27.50;49.80
40816;DHT22;26535;48.788;9.214;2022-07-06T17:41:21;27.50;49.80
40816;DHT22;26535;48.788;9.214;2022-07-06T17:43:47;27.50;49.80
40816;DHT22;26535;48.788;9.214;2022-07-06T17:46:13;27.50;49.90
40816;DHT22;26535;48.788;9.214;2022-07-06T17:48:39;27.20;50.00
40816;DHT22;26535;48.788;9.214;2022-07-06T17:51:05;27.10;50.20
40816;DHT22;26535;48.788;9.214;2022-07-06T17:53:30;27.10;50.30
40816;DHT22;26535;48.788;9.214;2022-07-06T17:55:56;27.50;49.60
40816;DHT22;26535;48.788;9.214;2022-07-06T17:58:22;28.00;49.00
40816;DHT22;26535;48.788;9.214;2022-07-06T18:00:47;28.40;48.40
40816;DHT22;26535;48.788;9.214;2022-07-06T18:03:13;28.20;48.50
40816;DHT22;26535;48.788;9.214;2022-07-06T18:05:39;27.60;48.80
40816;DHT22;26535;48.788;9.214;2022-07-06T18:08:06;27.00;49.10
40816;DHT22;26535;48.788;9.214;2022-07-06T18:10:32;26.50;50.20
40816;DHT22;26535;48.788;9.214;2022-07-06T18:12:59;25.80;51.10
40816;DHT22;26535;48.788;9.214;2022-07-06T18:15:25;25.50;51.50
40816;DHT22;26535;48.788;9.214;2022-07-06T18:17:51;25.10;52.20
40816;DHT22;26535;48.788;9.214;2022-07-06T18:20:17;25.00;52.30
40816;DHT22;26535;48.788;9.214;2022-07-06T18:22:43;25.00;52.90
40816;DHT22;26535;48.788;9.214;2022-07-06T18:25:09;25.10;52.10
40816;DHT22;26535;48.788;9.214;2022-07-06T18:27:38;25.00;51.90
40816;DHT22;26535;48.788;9.214;2022-07-06T18:30:07;24.70;52.30
40816;DHT22;26535;48.788;9.214;2022-07-06T18:32:36;24.30;52.60
40816;DHT22;26535;48.788;9.214;2022-07-06T18:35:02;24.10;53.20
40816;DHT22;26535;48.788;9.214;2022-07-06T18:37:28;23.90;53.60
40816;DHT22;26535;48.788;9.214;2022-07-06T18:39:54;23.90;53.90
40816;DHT22;26535;48.788;9.214;2022-07-06T18:42:20;23.60;54.20
40816;DHT22;26535;48.788;9.214;2022-07-06T18:44:45;23.50;54.50
40816;DHT22;26535;48.788;9.214;2022-07-06T18:47:11;23.40;54.60
40816;DHT22;26535;48.788;9.214;2022-07-06T18:49:38;23.40;54.90
40816;DHT22;26535;48.788;9.214;2022-07-06T18:52:04;23.30;55.10
40816;DHT22;26535;48.788;9.214;2022-07-06T18:54:30;23.20;55.40
40816;DHT22;26535;48.788;9.214;2022-07-06T18:56:56;23.00;55.70
40816;DHT22;26535;48.788;9.214;2022-07-06T18:59:22;22.80;56.00
40816;DHT22;26535;48.788;9.214;2022-07-06T19:01:48;22.70;56.30
40816;DHT22;26535;48.788;9.214;2022-07-06T19:04:14;22.50;56.60
40816;DHT22;26535;48.788;9.214;2022-07-06T19:06:40;22.30;57.10
40816;DHT22;26535;48.788;9.214;2022-07-06T19:09:06;22.10;57.20
40816;DHT22;26535;48.788;9.214;2022-07-06T19:11:32;22.10;57.70
40816;DHT22;26535;48.788;9.214;2022-07-06T19:13:58;21.90;58.00
40816;DHT22;26535;48.788;9.214;2022-07-06T19:16:24;21.80;58.30
40816;DHT22;26535;48.788;9.214;2022-07-06T19:18:49;21.60;58.90
40816;DHT22;26535;48.788;9.214;2022-07-06T19:21:15;21.40;59.70
40816;DHT22;26535;48.788;9.214;2022-07-06T19:23:41;21.30;60.20
40816;DHT22;26535;48.788;9.214;2022-07-06T19:26:07;21.20;60.60
40816;DHT22;26535;48.788;9.214;2022-07-06T19:28:33;21.00;61.10
40816;DHT22;26535;48.788;9.214;2022-07-06T19:30:58;20.90;61.60
40816;DHT22;26535;48.788;9.214;2022-07-06T19:33:24;20.70;62.00
40816;DHT22;26535;48.788;9.214;2022-07-06T19:35:52;20.50;62.40
40816;DHT22;26535;48.788;9.214;2022-07-06T19:38:18;20.30;62.80
40816;DHT22;26535;48.788;9.214;2022-07-06T19:40:43;20.20;62.90
40816;DHT22;26535;48.788;9.214;2022-07-06T19:43:12;20.10;63.30
40816;DHT22;26535;48.788;9.214;2022-07-06T19:45:38;20.10;63.40
40816;DHT22;26535;48.788;9.214;2022-07-06T19:48:04;20.00;63.70
40816;DHT22;26535;48.788;9.214;2022-07-06T19:50:30;19.90;64.10
40816;DHT22;26535;48.788;9.214;2022-07-06T19:52:59;19.80;64.30
40816;DHT22;26535;48.788;9.214;2022-07-06T19:55:24;19.80;64.50
40816;DHT22;26535;48.788;9.214;2022-07-06T19:57:50;19.60;64.70
40816;DHT22;26535;48.788;9.214;2022-07-06T20:00:16;19.60;64.80
40816;DHT22;26535;48.788;9.214;2022-07-06T20:02:45;19.50;65.20
40816;DHT22;26535;48.788;9.214;2022-07-06T20:05:11;19.40;65.40
40816;DHT22;26535;48.788;9.214;2022-07-06T20:07:40;19.30;66.20
40816;DHT22;26535;48.788;9.214;2022-07-06T20:10:06;19.30;65.70
40816;DHT22;26535;48.788;9.214;2022-07-06T20:12:32;19.20;66.00
40816;DHT22;26535;48.788;9.214;2022-07-06T20:14:58;19.10;66.10
40816;DHT22;26535;48.788;9.214;2022-07-06T20:17:24;19.00;66.40
40816;DHT22;26535;48.788;9.214;2022-07-06T20:19:50;18.90;67.40
40816;DHT22;26535;48.788;9.214;2022-07-06T20:22:16;18.80;67.30
40816;DHT22;26535;48.788;9.214;2022-07-06T20:24:41;18.70;67.40
40816;DHT22;26535;48.788;9.214;2022-07-06T20:27:07;18.60;67.90
40816;DHT22;26535;48.788;9.214;2022-07-06T20:29:33;18.70;67.60
40816;DHT22;26535;48.788;9.214;2022-07-06T20:31:59;18.70;67.40
40816;DHT22;26535;48.788;9.214;2022-07-06T20:34:24;18.60;67.50
40816;DHT22;26535;48.788;9.214;2022-07-06T20:36:50;18.60;67.50
40816;DHT22;26535;48.788;9.214;2022-07-06T20:39:19;18.50;67.70
40816;DHT22;26535;48.788;9.214;2022-07-06T20:41:45;18.50;68.10
40816;DHT22;26535;48.788;9.214;2022-07-06T20:44:11;18.40;68.10
40816;DHT22;26535;48.788;9.214;2022-07-06T20:46:37;18.30;68.50
40816;DHT22;26535;48.788;9.214;2022-07-06T20:49:02;18.30;68.60
40816;DHT22;26535;48.788;9.214;2022-07-06T20:51:28;18.20;69.00
40816;DHT22;26535;48.788;9.214;2022-07-06T20:53:55;18.20;68.90
40816;DHT22;26535;48.788;9.214;2022-07-06T20:56:20;18.20;69.00
40816;DHT22;26535;48.788;9.214;2022-07-06T20:58:46;18.20;69.20
40816;DHT22;26535;48.788;9.214;2022-07-06T21:01:18;18.10;69.50
40816;DHT22;26535;48.788;9.214;2022-07-06T21:03:48;18.10;69.70
40816;DHT22;26535;48.788;9.214;2022-07-06T21:06:17;18.00;70.00
40816;DHT22;26535;48.788;9.214;2022-07-06T21:08:42;18.00;70.20